createdAt,value
2023-04-04T00:00:34.317Z,1.58
2023-04-04T00:03:00.850Z,1.83
2023-04-04T00:05:27.784Z,2.10
2023-04-04T00:07:54.276Z,1.75
2023-04-04T00:10:20.920Z,1.67
2023-04-04T00:12:47.290Z,1.90
2023-04-04T00:15:13.745Z,2.25
2023-04-04T00:17:40.152Z,2.08
2023-04-04T00:20:07.490Z,2.10
2023-04-04T00:22:34.142Z,1.57
2023-04-04T00:25:00.779Z,1.48
2023-04-04T00:27:27.194Z,2.03
2023-04-04T00:29:53.661Z,1.75
2023-04-04T00:32:20.310Z,2.08
2023-04-04T00:34:46.718Z,1.93
2023-04-04T00:37:13.234Z,2.30
2023-04-04T00:39:41.068Z,1.75
2023-04-04T00:42:07.579Z,1.95
2023-04-04T00:44:36.325Z,1.95
2023-04-04T00:47:04.494Z,1.40
2023-04-04T00:49:31.046Z,2.03
2023-04-04T00:51:57.953Z,2.30
2023-04-04T00:54:24.445Z,1.85
2023-04-04T00:56:55.172Z,1.63
2023-04-04T00:59:27.787Z,1.90
2023-04-04T01:01:54.647Z,2.33
2023-04-04T01:04:21.244Z,1.80
2023-04-04T01:06:48.904Z,1.70
2023-04-04T01:09:15.732Z,1.95
2023-04-04T01:11:43.403Z,1.50
2023-04-04T01:14:09.803Z,2.05
2023-04-04T01:16:36.400Z,1.80
2023-04-04T01:19:06.704Z,2.03
2023-04-04T01:21:33.798Z,2.03
2023-04-04T01:24:01.877Z,1.70
2023-04-04T01:26:28.809Z,1.95
2023-04-04T01:28:56.345Z,1.90
2023-04-04T01:31:31.679Z,1.50
2023-04-04T01:34:30.413Z,2.35
2023-04-04T01:37:07.689Z,1.90
2023-04-04T01:39:48.101Z,2.28
2023-04-04T01:42:15.155Z,2.15
2023-04-04T01:44:41.877Z,1.45
2023-04-04T01:47:11.709Z,2.13
2023-04-04T01:49:38.105Z,1.97
2023-04-04T01:52:07.150Z,1.90
2023-04-04T01:54:35.849Z,2.05
2023-04-04T01:57:02.490Z,2.05
2023-04-04T01:59:29.061Z,1.50
2023-04-04T02:01:55.659Z,1.60
2023-04-04T02:04:22.129Z,2.17
2023-04-04T02:06:48.609Z,1.88
2023-04-04T02:09:15.037Z,1.80
2023-04-04T02:11:41.482Z,1.92
2023-04-04T02:14:07.956Z,2.30
2023-04-04T02:16:34.437Z,1.83
2023-04-04T02:19:01.184Z,2.17
2023-04-04T02:21:27.918Z,2.60
2023-04-04T02:23:54.293Z,2.13
2023-04-04T02:26:21.377Z,1.93
2023-04-04T02:28:47.784Z,1.90
2023-04-04T02:31:14.277Z,2.15
2023-04-04T02:33:40.679Z,1.70
2023-04-04T02:36:07.211Z,2.42
2023-04-04T02:38:33.942Z,2.00
2023-04-04T02:41:00.478Z,2.35
2023-04-04T02:43:26.853Z,2.33
2023-04-04T02:45:53.314Z,2.00
2023-04-04T02:48:19.693Z,3.03
2023-04-04T02:50:48.106Z,2.23
2023-04-04T02:53:14.600Z,1.70
2023-04-04T02:55:41.032Z,3.00
2023-04-04T02:58:07.487Z,2.10
2023-04-04T03:00:34.041Z,2.50
2023-04-04T03:03:00.639Z,2.07
2023-04-04T03:05:28.467Z,2.20
2023-04-04T03:07:58.263Z,2.20
2023-04-04T03:10:25.784Z,2.20
2023-04-04T03:12:52.371Z,2.78
2023-04-04T03:15:19.397Z,2.10
2023-04-04T03:17:45.904Z,1.88
2023-04-04T03:20:13.641Z,2.72
2023-04-04T03:22:40.036Z,2.42
2023-04-04T03:25:06.770Z,2.55
2023-04-04T03:27:33.514Z,2.33
2023-04-04T03:30:00.028Z,2.60
2023-04-04T03:32:26.537Z,2.20
2023-04-04T03:34:53.309Z,2.30
2023-04-04T03:37:19.727Z,2.25
2023-04-04T03:39:46.145Z,2.10
2023-04-04T03:42:12.589Z,2.53
2023-04-04T03:44:42.757Z,2.70
2023-04-04T03:47:09.242Z,2.42
2023-04-04T03:49:35.780Z,2.55
2023-04-04T03:52:05.079Z,2.40
2023-04-04T03:54:31.501Z,2.35
2023-04-04T03:56:58.051Z,2.25
2023-04-04T03:59:25.094Z,2.03
2023-04-04T04:01:52.233Z,2.15
2023-04-04T04:04:18.673Z,2.00
2023-04-04T04:06:45.120Z,2.65
2023-04-04T04:09:12.317Z,1.88
2023-04-04T04:11:38.720Z,2.30
2023-04-04T04:14:05.163Z,2.60
2023-04-04T04:16:32.943Z,2.20
2023-04-04T04:18:59.671Z,2.38
2023-04-04T04:21:26.260Z,2.33
2023-04-04T04:23:52.684Z,2.30
2023-04-04T04:26:19.107Z,3.13
2023-04-04T04:28:45.976Z,2.43
2023-04-04T04:31:12.380Z,2.40
2023-04-04T04:33:38.870Z,3.00
2023-04-04T04:36:07.279Z,2.33
2023-04-04T04:38:34.033Z,2.80
2023-04-04T04:41:00.761Z,2.40
2023-04-04T04:43:27.672Z,2.30
2023-04-04T04:45:54.358Z,2.90
2023-04-04T04:48:20.980Z,2.17
2023-04-04T04:50:48.095Z,2.90
2023-04-04T04:53:14.952Z,2.33
2023-04-04T04:55:43.169Z,2.45
2023-04-04T04:58:10.832Z,2.60
2023-04-04T05:00:38.031Z,2.33
2023-04-04T05:03:07.647Z,2.80
2023-04-04T05:05:34.462Z,2.23
2023-04-04T05:08:02.702Z,2.20
2023-04-04T05:10:30.618Z,2.50
2023-04-04T05:12:57.390Z,2.53
2023-04-04T05:15:25.829Z,2.25
2023-04-04T05:17:52.766Z,2.60
2023-04-04T05:20:19.185Z,2.90
2023-04-04T05:22:45.969Z,2.70
2023-04-04T05:25:13.312Z,2.42
2023-04-04T05:27:40.453Z,2.72
2023-04-04T05:30:07.953Z,2.30
2023-04-04T05:32:34.581Z,1.90
2023-04-04T05:35:01.531Z,2.30
2023-04-04T05:37:28.123Z,2.40
2023-04-04T05:39:55.171Z,2.60
2023-04-04T05:42:21.972Z,2.40
2023-04-04T05:44:48.445Z,2.70
2023-04-04T05:47:14.862Z,3.30
2023-04-04T05:49:41.441Z,3.13
2023-04-04T05:52:07.866Z,2.90
2023-04-04T05:54:34.239Z,2.77
2023-04-04T05:57:00.654Z,2.70
2023-04-04T05:59:27.215Z,3.28
2023-04-04T06:01:53.734Z,3.03
2023-04-04T06:04:20.113Z,3.67
2023-04-04T06:06:46.716Z,3.83
2023-04-04T06:09:13.076Z,4.55
2023-04-04T06:11:39.429Z,4.65
2023-04-04T06:14:06.002Z,3.72
2023-04-04T06:16:32.774Z,4.05
2023-04-04T06:18:59.190Z,3.97
2023-04-04T06:21:25.565Z,3.13
2023-04-04T06:23:51.939Z,3.83
2023-04-04T06:26:18.347Z,3.15
2023-04-04T06:28:51.820Z,3.75
2023-04-04T06:31:18.527Z,3.30
2023-04-04T06:33:44.970Z,3.78
2023-04-04T06:36:11.493Z,4.28
2023-04-04T06:38:37.879Z,3.65
2023-04-04T06:41:04.218Z,3.22
2023-04-04T06:43:31.062Z,3.60
2023-04-04T06:45:57.653Z,4.03
2023-04-04T06:48:24.049Z,4.00
2023-04-04T06:50:50.503Z,2.92
2023-04-04T06:53:17.238Z,3.47
2023-04-04T06:55:43.736Z,3.30
2023-04-04T06:58:10.384Z,3.53
2023-04-04T07:00:37.110Z,3.05
2023-04-04T07:03:04.032Z,2.95
2023-04-04T07:05:32.244Z,3.85
2023-04-04T07:07:58.728Z,3.53
2023-04-04T07:10:26.043Z,3.20
2023-04-04T07:12:52.579Z,3.53
2023-04-04T07:15:19.056Z,3.55
2023-04-04T07:17:45.644Z,3.28
2023-04-04T07:20:12.285Z,3.03
2023-04-04T07:22:39.986Z,2.45
2023-04-04T07:25:07.559Z,3.85
2023-04-04T07:27:34.003Z,3.25
2023-04-04T07:30:00.390Z,3.22
2023-04-04T07:32:26.963Z,2.83
2023-04-04T07:34:53.535Z,2.88
2023-04-04T07:37:19.903Z,4.10
2023-04-04T07:39:46.746Z,3.03
2023-04-04T07:42:13.096Z,3.00
2023-04-04T07:44:39.466Z,2.63
2023-04-04T07:47:09.988Z,2.70
2023-04-04T07:49:37.112Z,3.40
2023-04-04T07:52:04.662Z,3.33
2023-04-04T07:54:31.258Z,3.00
2023-04-04T07:56:57.687Z,2.50
2023-04-04T07:59:24.142Z,2.53
2023-04-04T08:02:06.430Z,3.15
2023-04-04T08:04:32.915Z,3.03
2023-04-04T08:06:59.329Z,3.38
2023-04-04T08:09:25.923Z,2.93
2023-04-04T08:11:52.816Z,3.63
2023-04-04T08:14:19.296Z,2.70
2023-04-04T08:16:46.123Z,2.42
2023-04-04T08:19:12.933Z,2.63
2023-04-04T08:21:39.395Z,2.57
2023-04-04T08:24:06.235Z,2.80
2023-04-04T08:26:33.005Z,2.70
2023-04-04T08:28:59.437Z,2.45
2023-04-04T08:31:25.966Z,2.30
2023-04-04T08:33:52.531Z,1.70
2023-04-04T08:36:19.683Z,1.73
2023-04-04T08:38:46.105Z,1.90
2023-04-04T08:41:13.251Z,1.50
2023-04-04T08:43:43.673Z,1.70
2023-04-04T08:46:12.665Z,1.77
2023-04-04T08:48:44.485Z,1.58
2023-04-04T08:51:14.079Z,1.73
2023-04-04T08:53:40.608Z,1.42
2023-04-04T08:56:07.163Z,1.85
2023-04-04T08:58:33.735Z,1.50
2023-04-04T09:01:00.865Z,1.38
2023-04-04T09:03:36.972Z,1.80
2023-04-04T09:06:04.717Z,1.90
2023-04-04T09:08:31.418Z,1.00
2023-04-04T09:11:08.309Z,1.20
2023-04-04T09:13:37.538Z,1.35
2023-04-04T09:16:26.204Z,1.52
2023-04-04T09:18:56.854Z,1.10
2023-04-04T09:21:23.272Z,1.80
2023-04-04T09:24:08.294Z,1.43
2023-04-04T09:26:53.601Z,1.92
2023-04-04T09:29:23.186Z,1.67
2023-04-04T09:31:51.036Z,1.42
2023-04-04T09:34:24.731Z,1.73
2023-04-04T09:36:53.610Z,1.10
2023-04-04T09:39:20.881Z,1.60
2023-04-04T09:41:50.814Z,1.70
2023-04-04T09:44:18.509Z,1.45
2023-04-04T09:46:45.280Z,1.70
2023-04-04T09:49:19.644Z,1.10
2023-04-04T09:51:50.204Z,1.67
2023-04-04T09:54:29.434Z,1.50
2023-04-04T09:56:56.846Z,1.58
2023-04-04T09:59:24.307Z,1.45
2023-04-04T10:01:53.384Z,1.50
2023-04-04T10:04:20.070Z,1.33
2023-04-04T10:06:47.187Z,1.65
2023-04-04T10:09:16.054Z,1.35
2023-04-04T10:11:42.772Z,1.40
2023-04-04T10:14:09.323Z,1.57
2023-04-04T10:16:39.184Z,1.80
2023-04-04T10:19:09.231Z,1.63
2023-04-04T10:21:35.860Z,1.17
2023-04-04T10:24:09.068Z,1.50
2023-04-04T10:26:36.831Z,1.60
2023-04-04T10:29:05.076Z,1.88
2023-04-04T10:31:34.148Z,1.50
2023-04-04T10:34:22.270Z,1.55
2023-04-04T10:37:06.742Z,1.80
2023-04-04T10:39:37.908Z,1.67
2023-04-04T10:42:06.033Z,1.67
2023-04-04T10:44:40.271Z,1.17
2023-04-04T10:47:22.105Z,1.50
2023-04-04T10:49:49.863Z,1.83
2023-04-04T10:52:21.248Z,1.43
2023-04-04T10:54:50.964Z,1.70
2023-04-04T10:57:17.614Z,1.55
2023-04-04T11:00:00.490Z,1.88
2023-04-04T11:02:54.477Z,1.77
2023-04-04T11:05:25.673Z,1.77
2023-04-04T11:10:36.136Z,1.90
2023-04-04T11:13:13.291Z,1.42
2023-04-04T11:15:59.848Z,1.50
2023-04-04T11:18:46.166Z,1.20
2023-04-04T11:21:23.741Z,1.08
2023-04-04T11:23:50.362Z,1.70
2023-04-04T11:26:26.209Z,1.70
2023-04-04T11:28:52.620Z,1.75
2023-04-04T11:31:19.438Z,1.60
2023-04-04T11:34:12.701Z,1.70
2023-04-04T11:36:40.018Z,1.50
2023-04-04T11:39:10.423Z,1.42
2023-04-04T11:42:08.277Z,1.52
2023-04-04T11:44:41.636Z,1.80
2023-04-04T11:47:09.250Z,1.25
2023-04-04T11:49:43.882Z,1.20
2023-04-04T11:52:13.443Z,1.65
2023-04-04T11:54:42.395Z,1.23
2023-04-04T11:57:11.992Z,1.73
2023-04-04T11:59:51.831Z,1.42
2023-04-04T12:02:27.408Z,1.67
2023-04-04T12:04:54.101Z,1.88
2023-04-04T12:07:20.841Z,1.48
2023-04-04T12:09:48.007Z,1.67
2023-04-04T12:12:16.468Z,1.60
2023-04-04T12:14:43.581Z,1.90
2023-04-04T12:17:10.684Z,1.90
2023-04-04T12:19:38.826Z,1.75
2023-04-04T12:22:05.923Z,1.63
2023-04-04T12:24:33.129Z,1.63
2023-04-04T12:26:59.918Z,2.30
2023-04-04T12:29:27.739Z,1.67
2023-04-04T12:31:55.434Z,1.98
2023-04-04T12:34:23.980Z,1.30
2023-04-04T12:36:55.476Z,1.63
2023-04-04T12:39:23.165Z,1.80
2023-04-04T12:41:54.302Z,1.92
2023-04-04T12:44:39.378Z,1.85
2023-04-04T12:47:15.714Z,1.90
2023-04-04T12:49:44.236Z,1.73
2023-04-04T12:52:20.512Z,2.20
2023-04-04T12:54:50.948Z,1.73
2023-04-04T12:57:24.737Z,2.00
2023-04-04T12:59:54.294Z,1.70
2023-04-04T13:02:22.867Z,1.65
2023-04-04T13:04:54.947Z,1.70
2023-04-04T13:07:34.919Z,2.08
2023-04-04T13:10:04.543Z,2.10
2023-04-04T13:13:00.059Z,2.00
2023-04-04T13:15:50.318Z,1.90
2023-04-04T13:18:21.814Z,2.10
2023-04-04T13:20:48.840Z,2.10
2023-04-04T13:23:15.883Z,1.92
2023-04-04T13:25:42.731Z,1.83
2023-04-04T13:28:11.599Z,1.98
2023-04-04T13:30:38.910Z,2.40
2023-04-04T13:33:06.063Z,1.90
2023-04-04T13:35:32.631Z,1.75
2023-04-04T13:37:58.991Z,2.43
2023-04-04T13:40:25.384Z,2.28
2023-04-04T13:42:51.864Z,2.25
2023-04-04T13:45:19.145Z,2.20
2023-04-04T13:47:45.668Z,1.98
2023-04-04T13:50:12.108Z,1.80
2023-04-04T13:52:38.558Z,1.90
2023-04-04T13:55:06.590Z,1.98
2023-04-04T13:57:33.005Z,1.83
2023-04-04T13:59:59.401Z,2.17
2023-04-04T14:02:25.910Z,1.97
2023-04-04T14:04:52.618Z,2.00
2023-04-04T14:07:19.799Z,2.15
2023-04-04T14:09:46.420Z,1.73
2023-04-04T14:14:40.864Z,2.07
2023-04-04T14:17:07.376Z,2.03
2023-04-04T14:19:33.769Z,2.00
2023-04-04T14:22:00.265Z,2.17
2023-04-04T14:24:26.793Z,2.17
2023-04-04T14:26:53.242Z,2.30
2023-04-04T14:29:19.665Z,1.90
2023-04-04T14:31:46.081Z,2.20
2023-04-04T14:34:12.498Z,2.05
2023-04-04T14:36:38.971Z,2.50
2023-04-04T14:39:05.445Z,1.93
2023-04-04T14:41:32.117Z,2.30
2023-04-04T14:43:58.513Z,2.33
2023-04-04T14:46:25.957Z,2.22
2023-04-04T14:48:53.293Z,2.20
2023-04-04T14:51:19.955Z,2.27
2023-04-04T14:53:46.631Z,2.08
2023-04-04T14:56:13.103Z,1.98
2023-04-04T14:58:39.457Z,1.90
2023-04-04T15:01:06.078Z,2.17
2023-04-04T15:03:34.729Z,2.23
2023-04-04T15:06:01.967Z,2.38
2023-04-04T15:08:28.342Z,2.50
2023-04-04T15:10:54.735Z,2.05
2023-04-04T15:13:21.395Z,2.20
2023-04-04T15:15:47.772Z,2.10
2023-04-04T15:18:15.807Z,2.15
2023-04-04T15:20:42.361Z,2.00
2023-04-04T15:23:08.965Z,2.55
2023-04-04T15:25:36.626Z,1.80
2023-04-04T15:28:03.042Z,2.13
2023-04-04T15:30:29.908Z,2.22
2023-04-04T15:32:56.933Z,2.45
2023-04-04T15:35:23.640Z,2.05
2023-04-04T15:37:50.110Z,2.22
2023-04-04T15:40:17.662Z,2.30
2023-04-04T15:42:45.234Z,2.20
2023-04-04T15:45:13.950Z,1.90
2023-04-04T15:47:41.678Z,1.88
2023-04-04T15:50:08.770Z,2.13
2023-04-04T15:52:35.161Z,2.20
2023-04-04T15:55:01.748Z,2.13
2023-04-04T15:57:28.112Z,2.10
2023-04-04T15:59:54.476Z,1.80
2023-04-04T16:02:20.964Z,2.00
2023-04-04T16:04:47.372Z,2.53
2023-04-04T16:07:13.815Z,2.03
2023-04-04T16:09:40.343Z,2.28
2023-04-04T16:12:06.896Z,1.77
2023-04-04T16:14:33.546Z,2.05
2023-04-04T16:17:00.527Z,2.13
2023-04-04T16:19:27.176Z,1.98
2023-04-04T16:21:53.596Z,2.50
2023-04-04T16:24:20.504Z,2.05
2023-04-04T16:26:50.165Z,2.22
2023-04-04T16:29:17.580Z,2.03
2023-04-04T16:31:44.161Z,1.70
2023-04-04T16:34:10.738Z,2.67
2023-04-04T16:36:37.257Z,2.20
2023-04-04T16:39:03.911Z,2.30
2023-04-04T16:41:30.562Z,2.27
2023-04-04T16:43:59.531Z,1.73
2023-04-04T16:46:27.385Z,2.58
2023-04-04T16:48:54.171Z,2.65
2023-04-04T16:51:20.712Z,2.42
2023-04-04T16:53:47.092Z,2.40
2023-04-04T16:56:13.457Z,2.42
2023-04-04T16:58:39.962Z,2.45
2023-04-04T17:01:06.633Z,2.13
2023-04-04T17:03:34.022Z,2.22
2023-04-04T17:06:01.645Z,2.10
2023-04-04T17:08:28.080Z,2.40
2023-04-04T17:10:54.522Z,2.50
2023-04-04T17:13:20.983Z,2.30
2023-04-04T17:15:47.471Z,2.50
2023-04-04T17:18:13.964Z,2.37
2023-04-04T17:20:42.648Z,2.40
2023-04-04T17:23:09.858Z,2.25
2023-04-04T17:25:36.613Z,2.30
2023-04-04T17:28:04.402Z,2.40
2023-04-04T17:30:31.293Z,2.13
2023-04-04T17:32:57.793Z,2.35
2023-04-04T17:35:24.360Z,2.50
2023-04-04T17:37:50.870Z,3.20
2023-04-04T17:40:17.942Z,2.58
2023-04-04T17:42:44.511Z,3.27
2023-04-04T17:45:11.617Z,2.60
2023-04-04T17:47:38.383Z,2.85
2023-04-04T17:50:05.487Z,2.90
2023-04-04T17:52:31.857Z,2.97
2023-04-04T17:54:58.231Z,2.83
2023-04-04T17:57:24.644Z,2.75
2023-04-04T17:59:51.197Z,3.05
2023-04-04T18:02:18.627Z,3.35
2023-04-04T18:04:47.106Z,3.10
2023-04-04T18:07:14.275Z,3.10
2023-04-04T18:09:41.169Z,3.53
2023-04-04T18:12:07.866Z,3.30
2023-04-04T18:14:34.266Z,3.63
2023-04-04T18:17:00.860Z,3.40
2023-04-04T18:19:27.263Z,3.07
2023-04-04T18:21:59.553Z,3.83
2023-04-04T18:24:27.973Z,3.67
2023-04-04T18:26:54.754Z,2.95
2023-04-04T18:29:21.369Z,3.85
2023-04-04T18:31:47.770Z,3.20
2023-04-04T18:34:16.528Z,3.70
2023-04-04T18:36:43.396Z,3.65
2023-04-04T18:39:09.764Z,3.50
2023-04-04T18:41:36.252Z,3.90
2023-04-04T18:44:02.671Z,3.47
2023-04-04T18:46:29.170Z,3.80
2023-04-04T18:48:55.575Z,4.35
2023-04-04T18:51:23.553Z,3.90
2023-04-04T18:53:50.760Z,3.90
2023-04-04T18:56:17.158Z,3.33
2023-04-04T18:58:43.514Z,3.28
2023-04-04T19:01:11.826Z,3.50
2023-04-04T19:03:44.613Z,3.42
2023-04-04T19:06:12.685Z,3.47
2023-04-04T19:08:40.494Z,2.97
2023-04-04T19:11:07.305Z,2.85
2023-04-04T19:13:33.663Z,3.53
2023-04-04T19:16:00.197Z,2.75
2023-04-04T19:18:26.600Z,3.70
2023-04-04T19:20:53.073Z,3.60
2023-04-04T19:23:21.104Z,2.90
2023-04-04T19:25:47.466Z,4.43
2023-04-04T19:28:14.021Z,3.17
2023-04-04T19:30:44.869Z,3.38
2023-04-04T19:33:16.992Z,3.57
2023-04-04T19:35:59.083Z,4.00
2023-04-04T19:38:33.441Z,3.33
2023-04-04T19:41:08.118Z,3.47
2023-04-04T19:43:34.852Z,3.65
2023-04-04T19:46:32.560Z,3.37
2023-04-04T19:49:00.548Z,3.95
2023-04-04T19:51:27.838Z,4.35
2023-04-04T19:53:56.222Z,3.78
2023-04-04T19:56:24.230Z,3.47
2023-04-04T19:58:54.271Z,3.50
2023-04-04T20:01:23.314Z,3.92
2023-04-04T20:03:49.809Z,4.13
2023-04-04T20:06:31.347Z,3.38
2023-04-04T20:08:59.814Z,3.72
2023-04-04T20:11:32.326Z,3.60
2023-04-04T20:14:05.768Z,3.92
2023-04-04T20:16:33.314Z,3.75
2023-04-04T20:19:01.439Z,3.45
2023-04-04T20:21:29.688Z,4.03
2023-04-04T20:23:58.155Z,3.87
2023-04-04T20:26:45.558Z,3.88
2023-04-04T20:29:14.198Z,4.20
2023-04-04T20:31:50.687Z,3.88
2023-04-04T20:34:39.655Z,3.80
2023-04-04T20:37:09.406Z,3.33
2023-04-04T20:39:46.208Z,4.18
2023-04-04T20:42:26.001Z,4.18
2023-04-04T20:44:52.886Z,4.22
2023-04-04T20:47:37.467Z,3.67
2023-04-04T20:50:22.420Z,3.87
2023-04-04T20:53:17.384Z,3.88
2023-04-04T20:55:44.326Z,4.57
2023-04-04T20:58:31.275Z,4.97
2023-04-04T21:00:59.549Z,4.80
2023-04-04T21:03:29.835Z,4.90
2023-04-04T21:06:10.400Z,4.68
2023-04-04T21:08:51.028Z,4.57
2023-04-04T21:11:30.200Z,5.25
2023-04-04T21:13:57.132Z,5.35
2023-04-04T21:16:27.505Z,5.13
2023-04-04T21:18:59.703Z,5.32
2023-04-04T21:21:26.573Z,4.47
2023-04-04T21:23:55.133Z,5.35
2023-04-04T21:26:30.329Z,5.15
2023-04-04T21:28:58.607Z,4.03
2023-04-04T21:31:27.514Z,5.18
2023-04-04T21:33:56.281Z,5.68
2023-04-04T21:36:27.582Z,4.90
2023-04-04T21:38:59.421Z,5.00
2023-04-04T21:41:28.223Z,5.03
2023-04-04T21:43:56.904Z,5.00
2023-04-04T21:46:25.396Z,5.38
2023-04-04T21:48:52.242Z,5.65
2023-04-04T21:51:19.002Z,5.88
2023-04-04T21:53:46.040Z,5.90
2023-04-04T21:56:13.739Z,6.18
2023-04-04T21:58:41.057Z,5.93
2023-04-04T22:01:08.200Z,5.18
2023-04-04T22:03:34.893Z,5.65
2023-04-04T22:06:01.296Z,5.30
2023-04-04T22:08:27.681Z,5.88
2023-04-04T22:10:54.467Z,5.95
2023-04-04T22:13:22.628Z,5.60
2023-04-04T22:15:49.671Z,5.95
2023-04-04T22:18:16.890Z,5.43
2023-04-04T22:20:44.958Z,5.55
2023-04-04T22:23:13.624Z,5.97
2023-04-04T22:25:40.000Z,4.72
2023-04-04T22:28:09.861Z,5.60
2023-04-04T22:30:39.032Z,4.60
2023-04-04T22:33:05.941Z,5.20
2023-04-04T22:35:33.011Z,5.95
2023-04-04T22:38:03.607Z,5.50
2023-04-04T22:40:31.630Z,5.28
2023-04-04T22:42:59.195Z,5.10
2023-04-04T22:45:26.798Z,5.60
2023-04-04T22:47:53.307Z,5.60
2023-04-04T22:50:23.196Z,5.18
2023-04-04T22:52:50.710Z,4.85
2023-04-04T22:55:19.281Z,4.73
2023-04-04T22:57:45.789Z,4.93
2023-04-04T23:00:12.939Z,5.60
2023-04-04T23:02:39.619Z,5.05
2023-04-04T23:05:08.141Z,4.93
2023-04-04T23:07:36.523Z,5.27
2023-04-04T23:10:08.258Z,4.75
2023-04-04T23:12:34.861Z,5.40
2023-04-04T23:15:03.733Z,4.28
2023-04-04T23:17:31.949Z,4.75
2023-04-04T23:19:59.948Z,4.77
2023-04-04T23:22:28.340Z,5.15
2023-04-04T23:24:55.179Z,5.10
2023-04-04T23:27:21.552Z,4.53
2023-04-04T23:29:50.530Z,5.25
2023-04-04T23:32:16.981Z,4.93
2023-04-04T23:34:43.408Z,4.93
2023-04-04T23:37:09.864Z,5.05
2023-04-04T23:39:36.949Z,4.47
2023-04-04T23:42:04.436Z,4.72
2023-04-04T23:44:30.850Z,5.17
2023-04-04T23:46:57.244Z,5.00
2023-04-04T23:49:23.669Z,4.97
2023-04-04T23:51:50.940Z,4.78
2023-04-04T23:54:17.314Z,4.70
2023-04-04T23:56:43.792Z,4.20
2023-04-04T23:59:10.466Z,4.03
